Pagina principale
METAR-TAF:

METAR-TAF

Aeroporti :

Aeroporto di Venezia-Tessera

Venezia, Italia

latitudine: 45-30N, longitudine: 012-20E, altezza: 2 m

Osservazione

Il bollettino è stato emesso 22 minuti fa, alle 15:50 UTC
Vento 9 kt da sud-ovest
Temperature 18°C
Umidità 49%
Pressione 1018 hPa
Visibilità 10 km o più
Nubi sparse ad un'altezza di 7000 ft

METAR: LIPZ 231550Z 22009KT 9999 SCT070 18/07 Q1018 NOSIG

Ora: 18:12 (16:12 UTC)

Previsione

Il bollettino è stato emesso 5 ore e 12 minuti fa, alle 11:00 UTC
Previsione valida dal 23 alle 12 UTC al 24 alle 18 UTC
Vento 5 kt da direzioni variabili
Visibilità 10 km o più
Poco nuvoloso ad un'altezza di 3000 ft
Temporaneamente
dal 24 alle 00 UTC al 24 alle 06 UTC
Visibilità: 3000 m
foschia

TAF: LIPZ 231100Z 2312/2418 VRB05KT 9999 FEW030 TEMPO 2400/2406 3000 BR

Osservazioni e previsioni meteorologiche di più di 4000 aeroporti (messaggi METAR e TAF).

Le stazioni disponibili sono rappresentate dai dischi gialli e rossi sulla carta.

Puntare il mouse per vedere il nome della stazione.

Clicca sopra per visualizzare le osservazioni e previsioni meteorologiche.

Per cambiare la mappa : fare clic sui pulsanti verdi con una croce nera per ingrandire, il pulsante verde con un trattino per diminuire, o sulla freccia verde per le mappe adiacenti.


METAR-TAF: